createdAt,value
2019-03-12T00:00:34.910Z,91.90
2019-03-12T00:03:05.008Z,92.20
2019-03-12T00:05:34.106Z,92.20
2019-03-12T00:08:05.749Z,92.60
2019-03-12T00:10:34.856Z,92.60
2019-03-12T00:13:03.954Z,93.00
2019-03-12T00:15:33.046Z,93.00
2019-03-12T00:18:01.937Z,93.20
2019-03-12T00:20:30.789Z,93.10
2019-03-12T00:22:59.829Z,93.20
2019-03-12T00:25:28.921Z,93.30
2019-03-12T00:27:58.317Z,93.40
2019-03-12T00:30:28.752Z,93.30
2019-03-12T00:32:57.744Z,93.30
2019-03-12T00:35:27.039Z,93.30
2019-03-12T00:37:56.139Z,93.60
2019-03-12T00:40:25.237Z,93.30
2019-03-12T00:42:55.034Z,93.30
2019-03-12T00:45:24.046Z,93.10
2019-03-12T00:47:52.760Z,93.30
2019-03-12T00:50:21.571Z,93.10
2019-03-12T00:52:50.610Z,93.20
2019-03-12T00:55:19.575Z,93.10
2019-03-12T00:57:48.707Z,93.10
2019-03-12T01:00:19.697Z,93.20
2019-03-12T01:02:48.867Z,93.20
2019-03-12T01:05:17.643Z,93.30
2019-03-12T01:07:46.728Z,93.40
2019-03-12T01:10:16.328Z,93.50
2019-03-12T01:12:45.235Z,93.40
2019-03-12T01:15:15.093Z,93.40
2019-03-12T01:17:43.971Z,93.50
2019-03-12T01:20:14.667Z,93.40
2019-03-12T01:22:43.861Z,93.40
2019-03-12T01:25:14.250Z,93.30
2019-03-12T01:27:43.287Z,93.40
2019-03-12T01:30:15.000Z,93.50
2019-03-12T01:32:44.033Z,93.40
2019-03-12T01:35:13.527Z,93.50
2019-03-12T01:37:42.335Z,93.50
2019-03-12T01:40:14.820Z,93.40
2019-03-12T01:42:43.892Z,93.40
2019-03-12T01:45:15.164Z,93.30
2019-03-12T01:47:46.895Z,93.30
2019-03-12T01:50:16.606Z,93.30
2019-03-12T01:52:45.704Z,93.40
2019-03-12T01:55:16.565Z,93.40
2019-03-12T01:57:45.411Z,93.40
2019-03-12T02:00:17.337Z,93.30
2019-03-12T02:02:46.400Z,93.40
2019-03-12T02:05:15.371Z,93.40
2019-03-12T02:07:44.888Z,93.40
2019-03-12T02:10:17.189Z,93.30
2019-03-12T02:12:46.007Z,93.40
2019-03-12T02:15:18.930Z,93.40
2019-03-12T02:17:48.045Z,93.40
2019-03-12T02:20:20.920Z,93.50
2019-03-12T02:22:50.011Z,93.50
2019-03-12T02:25:21.596Z,93.60
2019-03-12T02:27:50.774Z,93.50
2019-03-12T02:30:21.610Z,93.60
2019-03-12T02:32:50.378Z,93.60
2019-03-12T02:35:19.496Z,93.60
2019-03-12T02:37:48.291Z,93.70
2019-03-12T02:40:17.537Z,93.70
2019-03-12T02:42:49.760Z,93.80
2019-03-12T02:45:18.547Z,93.70
2019-03-12T02:47:47.381Z,93.70
2019-03-12T02:50:17.039Z,93.80
2019-03-12T02:52:46.752Z,93.80
2019-03-12T02:55:15.872Z,93.90
2019-03-12T02:57:44.941Z,93.90
2019-03-12T03:00:20.095Z,93.90
2019-03-12T03:02:48.866Z,93.90
2019-03-12T03:05:17.971Z,94.00
2019-03-12T03:07:48.998Z,94.10
2019-03-12T03:10:18.110Z,94.20
2019-03-12T03:12:47.237Z,94.20
2019-03-12T03:15:21.778Z,94.20
2019-03-12T03:17:51.633Z,94.40
2019-03-12T03:20:20.749Z,94.30
2019-03-12T03:22:49.936Z,94.40
2019-03-12T03:25:19.029Z,94.50
2019-03-12T03:27:49.371Z,94.50
2019-03-12T03:30:20.808Z,94.60
2019-03-12T03:32:49.888Z,94.50
2019-03-12T03:35:18.687Z,94.50
2019-03-12T03:37:47.527Z,94.50
2019-03-12T03:40:19.661Z,94.40
2019-03-12T03:42:50.279Z,94.40
2019-03-12T03:45:19.374Z,94.30
2019-03-12T03:47:51.052Z,94.40
2019-03-12T03:50:19.767Z,94.30
2019-03-12T03:52:48.550Z,94.30
2019-03-12T03:55:19.185Z,94.30
2019-03-12T03:57:48.440Z,94.50
2019-03-12T04:00:25.630Z,94.00
2019-03-12T04:02:54.716Z,94.00
2019-03-12T04:05:23.532Z,94.00
2019-03-12T04:07:52.596Z,94.30
2019-03-12T04:10:21.384Z,94.00
2019-03-12T04:12:50.170Z,94.00
2019-03-12T04:15:19.469Z,94.00
2019-03-12T04:17:48.791Z,94.00
2019-03-12T04:20:18.684Z,93.90
2019-03-12T04:22:47.496Z,93.80
2019-03-12T04:25:16.600Z,93.80
2019-03-12T04:27:45.688Z,93.70
2019-03-12T04:30:18.775Z,93.50
2019-03-12T04:32:48.170Z,93.40
2019-03-12T04:35:28.839Z,93.20
2019-03-12T04:37:57.619Z,92.90
2019-03-12T04:40:26.341Z,92.70
2019-03-12T04:42:55.409Z,92.30
2019-03-12T04:45:24.187Z,92.00
2019-03-12T04:47:53.296Z,91.90
2019-03-12T04:50:22.495Z,91.50
2019-03-12T04:52:51.284Z,91.90
2019-03-12T04:55:20.377Z,91.90
2019-03-12T04:57:49.200Z,91.90
2019-03-12T05:00:19.179Z,91.60
2019-03-12T05:02:47.967Z,91.90
2019-03-12T05:05:16.798Z,91.70
2019-03-12T05:07:45.969Z,91.80
2019-03-12T05:10:18.426Z,91.70
2019-03-12T05:12:47.248Z,91.90
2019-03-12T05:15:18.570Z,91.90
2019-03-12T05:17:47.768Z,91.90
2019-03-12T05:20:17.267Z,92.10
2019-03-12T05:22:46.362Z,91.90
2019-03-12T05:25:15.932Z,91.80
2019-03-12T05:27:44.719Z,91.70
2019-03-12T05:30:18.230Z,91.50
2019-03-12T05:32:47.053Z,91.20
2019-03-12T05:35:15.821Z,91.10
2019-03-12T05:37:44.915Z,91.40
2019-03-12T05:40:16.189Z,91.40
2019-03-12T05:42:44.985Z,91.20
2019-03-12T05:45:14.859Z,91.10
2019-03-12T05:47:44.099Z,90.80
2019-03-12T05:50:14.803Z,90.40
2019-03-12T05:52:44.029Z,87.50
2019-03-12T05:55:19.676Z,87.80
2019-03-12T05:57:48.875Z,87.40
2019-03-12T06:00:25.746Z,87.00
2019-03-12T06:02:54.465Z,87.80
2019-03-12T06:05:23.245Z,87.40
2019-03-12T06:07:55.339Z,87.10
2019-03-12T06:10:23.256Z,87.20
2019-03-12T06:12:52.355Z,87.60
2019-03-12T06:15:21.165Z,87.50
2019-03-12T06:17:50.338Z,87.70
2019-03-12T06:20:19.295Z,87.80
2019-03-12T06:22:48.434Z,88.70
2019-03-12T06:25:17.525Z,88.80
2019-03-12T06:27:46.238Z,90.00
2019-03-12T06:30:20.222Z,90.20
2019-03-12T06:32:53.547Z,90.30
2019-03-12T06:35:43.854Z,90.40
2019-03-12T06:38:14.543Z,90.40
2019-03-12T06:40:47.824Z,90.50
2019-03-12T06:43:17.330Z,91.00
2019-03-12T06:45:47.704Z,91.40
2019-03-12T06:48:21.572Z,91.50
2019-03-12T06:51:01.425Z,91.70
2019-03-12T06:53:40.888Z,91.90
2019-03-12T06:56:20.409Z,92.10
2019-03-12T06:59:07.032Z,92.20
2019-03-12T07:01:53.933Z,92.20
2019-03-12T07:04:30.806Z,92.10
2019-03-12T07:07:11.254Z,92.20
2019-03-12T07:09:56.047Z,92.30
2019-03-12T07:12:28.848Z,92.20
2019-03-12T07:15:05.288Z,92.20
2019-03-12T07:17:41.650Z,92.00
2019-03-12T07:20:29.085Z,91.30
2019-03-12T07:23:00.324Z,91.30
2019-03-12T07:25:33.469Z,91.10
2019-03-12T07:28:03.758Z,90.90
2019-03-12T07:30:46.548Z,91.10
2019-03-12T07:33:17.286Z,90.40
2019-03-12T07:35:47.643Z,89.70
2019-03-12T07:38:35.041Z,88.90
2019-03-12T07:41:24.526Z,88.80
2019-03-12T07:43:49.784Z,88.90
2019-03-12T07:46:20.149Z,87.90
2019-03-12T07:48:53.639Z,88.90
2019-03-12T07:51:24.396Z,89.50
2019-03-12T07:53:59.776Z,89.50
2019-03-12T07:56:32.472Z,88.60
2019-03-12T07:59:19.217Z,89.50
2019-03-12T08:02:06.023Z,89.00
2019-03-12T08:04:36.963Z,86.00
2019-03-12T08:07:16.266Z,85.70
2019-03-12T08:09:52.619Z,85.10
2019-03-12T08:12:42.553Z,86.80
2019-03-12T08:15:31.047Z,89.00
2019-03-12T08:18:01.727Z,84.00
2019-03-12T08:20:40.582Z,86.40
2019-03-12T08:23:10.998Z,87.50
2019-03-12T08:25:47.577Z,87.00
2019-03-12T08:28:24.327Z,85.20
2019-03-12T08:31:10.244Z,83.00
2019-03-12T08:33:49.897Z,83.70
2019-03-12T08:36:29.519Z,83.70
2019-03-12T08:39:03.007Z,83.30
2019-03-12T08:41:50.021Z,82.20
2019-03-12T08:44:20.756Z,84.00
2019-03-12T08:47:03.265Z,83.00
2019-03-12T08:49:35.019Z,83.00
2019-03-12T08:52:22.146Z,83.40
2019-03-12T08:55:05.082Z,81.90
2019-03-12T08:57:51.986Z,81.10
2019-03-12T09:00:24.639Z,82.00
2019-03-12T09:02:57.851Z,81.30
2019-03-12T09:05:28.692Z,80.20
2019-03-12T09:08:02.394Z,81.30
2019-03-12T09:10:35.992Z,80.00
2019-03-12T09:13:09.222Z,79.90
2019-03-12T09:15:45.852Z,79.50
2019-03-12T09:18:16.597Z,81.80
2019-03-12T09:20:53.014Z,78.50
2019-03-12T09:23:40.181Z,78.60
2019-03-12T09:26:10.563Z,79.30
2019-03-12T09:28:43.999Z,79.90
2019-03-12T09:31:30.917Z,78.60
2019-03-12T09:34:17.463Z,77.30
2019-03-12T09:36:57.363Z,78.50
2019-03-12T09:39:36.543Z,78.40
2019-03-12T09:42:10.000Z,78.20
2019-03-12T09:44:46.198Z,76.70
2019-03-12T09:47:31.610Z,74.90
2019-03-12T09:50:01.978Z,76.10
2019-03-12T09:52:33.792Z,74.70
2019-03-12T09:55:07.114Z,73.40
2019-03-12T09:57:39.494Z,73.60
2019-03-12T10:00:16.436Z,73.90
2019-03-12T10:02:58.164Z,74.30
2019-03-12T10:05:43.951Z,74.00
2019-03-12T10:08:14.683Z,72.70
2019-03-12T10:10:45.435Z,71.20
2019-03-12T10:13:32.429Z,72.70
2019-03-12T10:16:18.941Z,72.20
2019-03-12T10:19:05.739Z,71.20
2019-03-12T10:21:51.289Z,71.10
2019-03-12T10:24:21.967Z,69.40
2019-03-12T10:26:58.443Z,68.70
2019-03-12T10:29:29.178Z,68.40
2019-03-12T10:32:09.132Z,67.40
2019-03-12T10:34:45.554Z,68.20
2019-03-12T10:37:27.928Z,66.80
2019-03-12T10:40:06.115Z,66.30
2019-03-12T10:42:39.712Z,67.60
2019-03-12T10:45:14.188Z,66.50
2019-03-12T10:47:44.510Z,67.00
2019-03-12T10:50:13.615Z,67.30
2019-03-12T10:52:42.365Z,69.30
2019-03-12T10:55:13.821Z,68.40
2019-03-12T10:57:42.417Z,68.60
2019-03-12T11:00:19.140Z,68.60
2019-03-12T11:02:48.220Z,69.10
2019-03-12T11:05:20.205Z,68.10
2019-03-12T11:07:49.410Z,65.20
2019-03-12T11:10:19.948Z,65.60
2019-03-12T11:12:49.032Z,64.10
2019-03-12T11:15:18.230Z,63.90
2019-03-12T11:17:50.382Z,62.80
2019-03-12T11:20:22.468Z,61.70
2019-03-12T11:22:51.193Z,60.50
2019-03-12T11:25:27.467Z,60.50
2019-03-12T11:27:50.773Z,61.70
2019-03-12T11:30:20.791Z,59.10
2019-03-12T11:32:49.919Z,58.10
2019-03-12T11:35:18.710Z,59.70
2019-03-12T11:37:47.884Z,58.90
2019-03-12T11:40:24.445Z,58.90
2019-03-12T11:42:53.440Z,59.30
2019-03-12T11:45:35.717Z,61.30
2019-03-12T11:47:53.295Z,59.90
2019-03-12T11:50:26.896Z,59.80
2019-03-12T11:52:59.100Z,57.80
2019-03-12T11:55:26.439Z,57.90
2019-03-12T11:57:55.155Z,56.20
2019-03-12T12:00:27.512Z,56.70
2019-03-12T12:03:00.351Z,55.80
2019-03-12T12:05:27.896Z,55.30
2019-03-12T12:07:57.066Z,55.50
2019-03-12T12:10:29.470Z,55.50
2019-03-12T12:12:58.302Z,56.10
2019-03-12T12:15:27.360Z,57.30
2019-03-12T12:17:56.551Z,57.30
2019-03-12T12:20:29.863Z,57.50
2019-03-12T12:22:56.180Z,57.10
2019-03-12T12:25:25.281Z,57.20
2019-03-12T12:27:54.394Z,59.30
2019-03-12T12:30:24.495Z,58.90
2019-03-12T12:32:55.125Z,59.40
2019-03-12T12:35:24.336Z,59.50
2019-03-12T12:37:53.429Z,58.70
2019-03-12T12:40:22.859Z,57.40
2019-03-12T12:42:51.621Z,56.40
2019-03-12T12:45:34.838Z,57.70
2019-03-12T12:48:04.153Z,56.30
2019-03-12T12:50:33.234Z,56.10
2019-03-12T12:53:02.328Z,53.80
2019-03-12T12:55:31.159Z,53.30
2019-03-12T12:57:59.874Z,54.00
2019-03-12T13:00:30.335Z,53.90
2019-03-12T13:03:00.363Z,54.30
2019-03-12T13:05:29.107Z,54.40
2019-03-12T13:07:58.244Z,54.60
2019-03-12T13:10:32.255Z,54.70
2019-03-12T13:13:01.359Z,55.70
2019-03-12T13:15:30.456Z,55.10
2019-03-12T13:17:59.659Z,56.90
2019-03-12T13:20:28.510Z,55.00
2019-03-12T13:22:57.284Z,54.80
2019-03-12T13:25:26.453Z,54.40
2019-03-12T13:27:55.624Z,53.90
2019-03-12T13:30:26.048Z,55.10
2019-03-12T13:32:55.140Z,53.50
2019-03-12T13:35:24.241Z,55.30
2019-03-12T13:37:53.142Z,54.90
2019-03-12T13:40:27.056Z,55.50
2019-03-12T13:42:56.657Z,54.00
2019-03-12T13:45:28.333Z,52.80
2019-03-12T13:47:57.381Z,53.30
2019-03-12T13:50:26.965Z,53.50
2019-03-12T13:52:56.278Z,53.70
2019-03-12T13:55:25.548Z,51.60
2019-03-12T13:57:54.700Z,53.60
2019-03-12T14:00:28.737Z,52.10
2019-03-12T14:02:57.819Z,53.20
2019-03-12T14:05:26.906Z,53.10
2019-03-12T14:07:56.693Z,54.00
2019-03-12T14:10:27.322Z,54.40
2019-03-12T14:12:59.051Z,56.20
2019-03-12T14:15:40.296Z,57.40
2019-03-12T14:18:09.118Z,58.60
2019-03-12T14:20:46.164Z,61.00
2019-03-12T14:23:27.142Z,65.70
2019-03-12T14:25:55.999Z,69.40
2019-03-12T14:28:24.882Z,67.10
2019-03-12T14:30:53.596Z,69.70
2019-03-12T14:33:22.823Z,70.40
2019-03-12T14:35:52.478Z,70.60
2019-03-12T14:38:21.709Z,70.00
2019-03-12T14:40:50.920Z,70.30
2019-03-12T14:43:19.623Z,69.50
2019-03-12T14:45:50.941Z,67.30
2019-03-12T14:48:45.553Z,66.70
2019-03-12T14:51:19.876Z,64.00
2019-03-12T14:54:00.735Z,66.50
2019-03-12T14:56:30.650Z,63.90
2019-03-12T14:59:00.168Z,62.00
2019-03-12T15:01:28.993Z,57.70
2019-03-12T15:03:57.791Z,59.10
2019-03-12T15:06:26.512Z,57.50
2019-03-12T15:08:55.674Z,56.80
2019-03-12T15:11:24.722Z,56.00
2019-03-12T15:13:53.806Z,56.80
2019-03-12T15:16:22.563Z,57.40
2019-03-12T15:18:54.335Z,57.90
2019-03-12T15:21:23.453Z,57.50
2019-03-12T15:23:52.544Z,56.70
2019-03-12T15:26:21.653Z,55.80
2019-03-12T15:28:50.754Z,55.70
2019-03-12T15:31:19.565Z,56.90
2019-03-12T15:33:49.240Z,56.70
2019-03-12T15:36:17.948Z,56.70
2019-03-12T15:38:46.701Z,56.50
2019-03-12T15:41:15.493Z,55.60
2019-03-12T15:43:44.611Z,54.90
2019-03-12T15:46:13.710Z,54.50
2019-03-12T15:48:42.784Z,54.90
2019-03-12T15:51:11.563Z,55.60
2019-03-12T15:53:40.780Z,55.70
2019-03-12T15:56:09.574Z,55.10
2019-03-12T15:58:38.678Z,55.90
2019-03-12T16:01:07.764Z,56.40
2019-03-12T16:03:36.550Z,56.80
2019-03-12T16:06:05.334Z,56.10
2019-03-12T16:08:34.092Z,56.50
2019-03-12T16:11:03.215Z,54.60
2019-03-12T16:13:31.991Z,54.20
2019-03-12T16:16:01.319Z,54.00
2019-03-12T16:18:30.080Z,53.90
2019-03-12T16:20:58.855Z,53.80
2019-03-12T16:23:28.022Z,54.80
2019-03-12T16:25:57.183Z,55.20
2019-03-12T16:28:26.008Z,56.40
2019-03-12T16:30:55.179Z,57.50
2019-03-12T16:33:24.264Z,57.80
2019-03-12T16:35:53.358Z,58.30
2019-03-12T16:38:22.559Z,58.60
2019-03-12T16:40:51.760Z,58.80
2019-03-12T16:43:22.176Z,59.30
2019-03-12T16:45:51.692Z,59.60
2019-03-12T16:48:20.797Z,59.60
2019-03-12T16:50:49.707Z,60.10
2019-03-12T16:53:18.881Z,60.40
2019-03-12T16:55:51.121Z,60.80
2019-03-12T16:58:19.910Z,61.20
2019-03-12T17:00:48.799Z,61.90
2019-03-12T17:03:17.730Z,62.20
2019-03-12T17:05:48.101Z,62.90
2019-03-12T17:08:16.882Z,63.30
2019-03-12T17:10:56.781Z,63.90
2019-03-12T17:13:17.085Z,64.20
2019-03-12T17:15:46.177Z,64.00
2019-03-12T17:18:15.275Z,64.50
2019-03-12T17:20:44.212Z,65.20
2019-03-12T17:23:13.366Z,66.10
2019-03-12T17:25:42.182Z,67.50
2019-03-12T17:28:10.955Z,68.20
2019-03-12T17:30:40.137Z,68.10
2019-03-12T17:33:08.925Z,68.60
2019-03-12T17:35:40.377Z,69.50
2019-03-12T17:38:09.131Z,69.50
2019-03-12T17:40:38.257Z,70.30
2019-03-12T17:43:07.352Z,70.90
2019-03-12T17:45:36.453Z,71.30
2019-03-12T17:48:05.853Z,72.50
2019-03-12T17:50:34.570Z,73.70
2019-03-12T17:53:03.627Z,74.30
2019-03-12T17:55:32.838Z,74.80
2019-03-12T17:58:01.621Z,75.20
2019-03-12T18:00:31.999Z,76.50
2019-03-12T18:03:01.146Z,77.50
2019-03-12T18:05:30.240Z,78.50
2019-03-12T18:07:59.071Z,79.10
2019-03-12T18:10:27.849Z,79.70
2019-03-12T18:12:56.912Z,80.50
2019-03-12T18:15:25.665Z,81.40
2019-03-12T18:17:55.517Z,82.50
2019-03-12T18:20:25.124Z,83.40
2019-03-12T18:22:54.113Z,83.00
2019-03-12T18:25:31.278Z,82.50
2019-03-12T18:28:00.402Z,82.40
2019-03-12T18:30:29.707Z,82.30
2019-03-12T18:32:58.788Z,82.20
2019-03-12T18:35:28.000Z,82.40
2019-03-12T18:37:57.083Z,82.00
2019-03-12T18:40:29.935Z,82.00
2019-03-12T18:42:59.073Z,82.10
2019-03-12T18:45:36.971Z,82.30
2019-03-12T18:48:05.989Z,82.30
2019-03-12T18:50:35.060Z,82.30
2019-03-12T18:53:04.153Z,82.60
2019-03-12T18:55:38.078Z,82.50
2019-03-12T18:58:08.568Z,82.70
2019-03-12T19:00:39.627Z,83.00
2019-03-12T19:03:08.415Z,83.10
2019-03-12T19:05:37.206Z,83.30
2019-03-12T19:08:06.312Z,83.20
2019-03-12T19:10:35.100Z,83.60
2019-03-12T19:13:04.204Z,83.90
2019-03-12T19:15:33.412Z,84.20
2019-03-12T19:18:02.493Z,84.50
2019-03-12T19:20:33.071Z,84.30
2019-03-12T19:23:02.436Z,84.60
2019-03-12T19:25:39.710Z,85.10
2019-03-12T19:28:08.532Z,85.60
2019-03-12T19:30:37.999Z,86.10
2019-03-12T19:33:25.171Z,86.30
2019-03-12T19:35:53.969Z,86.80
2019-03-12T19:38:22.722Z,86.90
2019-03-12T19:40:58.977Z,87.80
2019-03-12T19:43:28.189Z,87.10
2019-03-12T19:45:57.680Z,87.20
2019-03-12T19:48:26.789Z,87.20
2019-03-12T19:50:56.066Z,87.20
2019-03-12T19:53:24.874Z,87.50
2019-03-12T19:56:02.847Z,87.40
2019-03-12T19:58:31.556Z,87.40
2019-03-12T20:01:02.485Z,87.20
2019-03-12T20:03:31.589Z,87.10
2019-03-12T20:06:01.097Z,87.10
2019-03-12T20:08:30.292Z,86.90
2019-03-12T20:11:02.060Z,86.70
2019-03-12T20:13:54.975Z,86.40
2019-03-12T20:17:09.040Z,86.40
2019-03-12T20:20:02.732Z,86.10
2019-03-12T20:22:40.497Z,85.90
2019-03-12T20:25:20.759Z,85.90
2019-03-12T20:28:26.223Z,86.00
2019-03-12T20:31:18.072Z,86.20
2019-03-12T20:34:06.615Z,86.90
2019-03-12T20:37:12.058Z,87.10
2019-03-12T20:40:06.429Z,87.00
2019-03-12T20:42:58.073Z,87.00
2019-03-12T20:46:03.100Z,86.90
2019-03-12T20:49:09.890Z,86.50
2019-03-12T20:51:51.298Z,86.20
2019-03-12T20:54:32.115Z,85.40
2019-03-12T20:57:20.319Z,84.50
2019-03-12T21:00:25.415Z,83.90
2019-03-12T21:03:17.747Z,83.60
2019-03-12T21:05:58.547Z,83.80
2019-03-12T21:09:04.907Z,84.20
2019-03-12T21:11:56.539Z,84.50
2019-03-12T21:15:00.388Z,84.70
2019-03-12T21:17:48.551Z,84.10
2019-03-12T21:20:37.356Z,83.60
2019-03-12T21:23:26.005Z,84.70
2019-03-12T21:26:18.981Z,84.90
2019-03-12T21:29:03.203Z,85.20
2019-03-12T21:31:31.989Z,85.60
2019-03-12T21:34:00.763Z,85.80
2019-03-12T21:36:31.128Z,86.30
2019-03-12T21:39:00.308Z,86.40
2019-03-12T21:41:29.503Z,86.30
2019-03-12T21:43:58.601Z,86.30
2019-03-12T21:46:27.713Z,86.30
2019-03-12T21:48:56.909Z,86.50
2019-03-12T21:51:26.200Z,86.50
2019-03-12T21:53:55.292Z,86.70
2019-03-12T21:56:24.499Z,86.90
2019-03-12T21:58:53.793Z,86.70
2019-03-12T22:01:22.609Z,86.30
2019-03-12T22:03:51.791Z,86.10
2019-03-12T22:06:20.876Z,86.00
2019-03-12T22:08:49.961Z,85.90
2019-03-12T22:11:19.076Z,85.80
2019-03-12T22:13:48.172Z,85.80
2019-03-12T22:16:16.903Z,85.60
2019-03-12T22:18:46.049Z,85.40
2019-03-12T22:21:16.613Z,85.30
2019-03-12T22:23:47.310Z,84.90
2019-03-12T22:26:16.441Z,85.00
2019-03-12T22:28:45.352Z,85.00
2019-03-12T22:31:14.500Z,85.10
2019-03-12T22:33:43.600Z,85.10
2019-03-12T22:36:12.692Z,85.00
2019-03-12T22:38:41.997Z,85.00
2019-03-12T22:41:10.785Z,84.80
2019-03-12T22:43:39.999Z,84.70
2019-03-12T22:46:08.777Z,84.70
2019-03-12T22:48:37.871Z,84.80
2019-03-12T22:51:06.959Z,85.00
2019-03-12T22:53:36.156Z,85.20
2019-03-12T22:56:04.945Z,85.40
2019-03-12T22:58:34.457Z,86.30
2019-03-12T23:01:03.556Z,85.90
2019-03-12T23:03:32.344Z,86.10
2019-03-12T23:06:01.535Z,86.30
2019-03-12T23:08:30.738Z,86.10
2019-03-12T23:10:59.560Z,86.30
2019-03-12T23:13:28.385Z,86.40
2019-03-12T23:15:57.095Z,86.30
2019-03-12T23:18:25.924Z,86.60
2019-03-12T23:20:54.633Z,86.80
2019-03-12T23:23:23.342Z,86.70
2019-03-12T23:25:52.464Z,87.70
2019-03-12T23:28:21.562Z,86.80
2019-03-12T23:30:50.880Z,86.50
2019-03-12T23:33:20.379Z,86.40
2019-03-12T23:35:49.150Z,86.40
2019-03-12T23:38:18.248Z,86.30
2019-03-12T23:40:47.348Z,86.30
2019-03-12T23:43:16.132Z,86.10
2019-03-12T23:45:45.429Z,85.90
2019-03-12T23:48:14.536Z,85.60
2019-03-12T23:50:43.632Z,85.50
2019-03-12T23:53:12.724Z,85.70
2019-03-12T23:55:42.018Z,85.40
2019-03-12T23:58:10.722Z,85.80
